Time;durP1;ratioP1;P1;durP2;ratioP2;P2;SDS_P1;SDS_P2;PMS_P1;PMS_P2;Temp;Humidity;BMP_temperature;BMP_pressure;BME280_temperature;BME280_humidity;BME280_pressure;Samples;Min_cycle;Max_cycle;Signal;HPM_P1;HPM_P2
2022/04/02 00:00:05;;;;;;;6.05;2.80;;;;;;;1.02;92.58;101506.19;5012812;28;20233;-42
2022/04/02 00:02:30;;;;;;;3.85;2.55;;;;;;;1.03;91.80;101510.50;5015220;28;20036;-40
2022/04/02 00:04:55;;;;;;;6.57;2.50;;;;;;;1.03;92.58;101515.75;5014811;28;20324;-43
2022/04/02 00:07:20;;;;;;;4.50;2.20;;;;;;;1.03;92.94;101509.66;5012627;28;20029;-41
2022/04/02 00:09:46;;;;;;;5.93;2.33;;;;;;;1.02;91.98;101508.81;5008223;28;20392;-41
2022/04/02 00:12:11;;;;;;;5.95;2.47;;;;;;;1.02;92.09;101510.59;5014852;28;20112;-41
2022/04/02 00:14:36;;;;;;;5.68;2.30;;;;;;;1.05;91.69;101503.41;5013670;28;20104;-41
2022/04/02 00:17:02;;;;;;;3.70;2.38;;;;;;;1.07;91.41;101513.81;5013802;28;20076;-40
2022/04/02 00:19:29;;;;;;;5.32;2.40;;;;;;;1.04;91.47;101506.94;5019311;28;20038;-41
2022/04/02 00:21:54;;;;;;;4.15;2.30;;;;;;;1.03;92.00;101515.75;5012545;28;20104;-40
2022/04/02 00:24:19;;;;;;;3.78;2.17;;;;;;;1.05;91.67;101508.66;5014778;28;20120;-41
2022/04/02 00:26:45;;;;;;;5.30;2.40;;;;;;;1.01;91.86;101515.00;5014786;28;20039;-41
2022/04/02 00:29:11;;;;;;;5.32;2.50;;;;;;;0.99;91.70;101519.50;5012822;28;20056;-42
2022/04/02 00:31:36;;;;;;;6.22;2.15;;;;;;;0.98;90.67;101511.69;5012360;28;20149;-42
2022/04/02 00:34:01;;;;;;;3.55;2.30;;;;;;;0.99;91.12;101513.41;5014541;28;20108;-42
2022/04/02 00:36:27;;;;;;;6.07;2.30;;;;;;;0.98;91.54;101511.69;5014684;28;20029;-42
2022/04/02 00:38:52;;;;;;;3.70;2.20;;;;;;;1.00;91.48;101515.09;5013651;28;20040;-41
2022/04/02 00:41:18;;;;;;;5.50;2.30;;;;;;;0.99;90.85;101508.13;5013733;28;20044;-42
2022/04/02 00:44:09;;;;;;;5.03;2.20;;;;;;;1.00;90.96;101512.44;5014446;28;20025;-43
2022/04/02 00:46:36;;;;;;;5.65;2.28;;;;;;;0.97;91.00;101502.97;5008050;28;20187;-42
2022/04/02 00:49:01;;;;;;;5.50;2.50;;;;;;;0.96;90.61;101501.25;5011274;28;20495;-41
2022/04/02 00:51:27;;;;;;;10.15;2.70;;;;;;;0.97;90.80;101497.69;5014719;28;20030;-42
2022/04/02 00:53:52;;;;;;;4.88;2.28;;;;;;;0.96;90.35;101503.03;5014071;28;20471;-41
2022/04/02 00:56:20;;;;;;;6.70;2.50;;;;;;;0.95;90.45;101509.22;5013305;28;20032;-42
2022/04/02 00:58:46;;;;;;;4.68;2.28;;;;;;;0.98;90.49;101516.94;5014010;28;20384;-41
2022/04/02 01:01:11;;;;;;;4.07;2.33;;;;;;;0.91;90.79;101512.00;5012912;28;20033;-41
2022/04/02 01:03:37;;;;;;;6.93;2.63;;;;;;;0.89;90.68;101511.25;5014066;28;20034;-45
2022/04/02 01:06:03;;;;;;;4.85;2.40;;;;;;;0.86;90.43;101511.41;5013577;28;20313;-41
2022/04/02 01:08:28;;;;;;;4.45;2.42;;;;;;;0.85;90.83;101503.59;5014176;28;20162;-43
2022/04/02 01:10:58;;;;;;;6.13;2.80;;;;;;;0.83;91.18;101518.63;5014044;28;20034;-43
2022/04/02 01:13:25;;;;;;;4.30;2.58;;;;;;;0.78;91.12;101512.75;5006246;28;20426;-42
2022/04/02 01:15:50;;;;;;;7.97;2.63;;;;;;;0.79;91.33;101522.34;4996625;28;20041;-40
2022/04/02 01:18:16;;;;;;;4.45;2.50;;;;;;;0.77;91.28;101532.94;5013262;28;20033;-40
2022/04/02 01:20:41;;;;;;;4.40;2.50;;;;;;;0.78;91.69;101525.91;5013342;28;20160;-41
2022/04/02 01:23:08;;;;;;;5.45;2.30;;;;;;;0.77;91.65;101525.06;5013893;28;20025;-43
2022/04/02 01:25:34;;;;;;;6.40;2.50;;;;;;;0.80;91.85;101530.16;5002903;28;20498;-41
2022/04/02 01:28:00;;;;;;;3.13;2.28;;;;;;;0.81;91.01;101517.84;5013170;28;20017;-44
2022/04/02 01:30:28;;;;;;;3.53;2.20;;;;;;;0.82;91.46;101519.56;5008585;28;20018;-43
2022/04/02 01:32:54;;;;;;;4.50;2.33;;;;;;;0.83;91.02;101531.75;5009823;28;20496;-42
2022/04/02 01:35:21;;;;;;;5.53;2.53;;;;;;;0.81;90.66;101525.75;4997598;28;20028;-41
2022/04/02 01:37:47;;;;;;;7.45;2.50;;;;;;;0.81;91.48;101516.06;5011111;28;20045;-43
2022/04/02 01:40:12;;;;;;;2.90;2.30;;;;;;;0.81;90.67;101517.84;5013110;28;20178;-42
2022/04/02 01:42:37;;;;;;;6.55;2.50;;;;;;;0.78;91.29;101515.38;5014015;28;20061;-42
2022/04/02 01:45:04;;;;;;;6.13;2.50;;;;;;;0.74;91.04;101512.91;5011468;28;20029;-41
2022/04/02 01:47:29;;;;;;;5.93;2.70;;;;;;;0.70;90.99;101511.38;5012932;28;20052;-42
2022/04/02 01:49:54;;;;;;;4.15;2.47;;;;;;;0.73;91.17;101518.25;5028828;28;20472;-43
2022/04/02 01:52:21;;;;;;;4.38;2.30;;;;;;;0.71;92.15;101509.59;5012749;28;20039;-41
2022/04/02 01:54:47;;;;;;;4.07;2.45;;;;;;;0.71;90.81;101507.84;5013681;28;20087;-40
2022/04/02 01:57:13;;;;;;;5.03;2.30;;;;;;;0.67;91.65;101516.78;5012989;28;20025;-41
2022/04/02 01:59:40;;;;;;;5.07;2.45;;;;;;;0.66;91.81;101514.25;5012823;28;20041;-41
2022/04/02 02:02:07;;;;;;;4.65;2.80;;;;;;;0.63;92.40;101524.91;5011637;28;20040;-41
2022/04/02 02:04:33;;;;;;;4.95;2.90;;;;;;;0.57;93.29;101522.63;5012983;28;20105;-42
2022/04/02 02:06:59;;;;;;;6.75;2.60;;;;;;;0.62;93.58;101528.50;5012999;28;20033;-42
2022/04/02 02:09:24;;;;;;;6.68;2.60;;;;;;;0.60;93.42;101533.81;5013022;28;20098;-40
2022/04/02 02:11:49;;;;;;;3.55;2.10;;;;;;;0.62;93.11;101531.13;5011361;28;20133;-43
2022/04/02 02:14:15;;;;;;;3.30;2.35;;;;;;;0.59;93.12;101531.28;5012424;28;20433;-41
2022/04/02 02:16:40;;;;;;;4.80;2.42;;;;;;;0.57;93.31;101533.97;5012803;28;20029;-41
2022/04/02 02:19:05;;;;;;;5.20;2.40;;;;;;;0.56;92.91;101532.25;5013337;28;20061;-42
2022/04/02 02:21:31;;;;;;;4.22;2.35;;;;;;;0.60;92.71;101544.34;5012635;28;20097;-41
2022/04/02 02:23:56;;;;;;;4.07;2.30;;;;;;;0.55;93.45;101541.94;5027205;28;20033;-43
2022/04/02 02:26:22;;;;;;;4.03;2.60;;;;;;;0.52;93.09;101536.00;5013315;28;20475;-41
2022/04/02 02:28:48;;;;;;;4.97;2.40;;;;;;;0.48;94.02;101534.47;5012075;28;20516;-41
2022/04/02 02:31:13;;;;;;;4.25;2.42;;;;;;;0.46;93.99;101542.44;5009223;28;20014;-44
2022/04/02 02:36:23;;;;;;;5.85;2.80;;;;;;;0.40;93.57;101540.09;5012633;28;20705;-41
2022/04/02 02:38:48;;;;;;;5.28;2.58;;;;;;;0.39;93.82;101551.56;5015186;28;20151;-41
2022/04/02 02:41:14;;;;;;;5.78;2.67;;;;;;;0.40;93.96;101558.50;5016096;28;20426;-41
2022/04/02 02:43:39;;;;;;;4.15;2.38;;;;;;;0.38;93.78;101555.09;5016310;28;20396;-42
2022/04/02 02:46:05;;;;;;;6.13;2.60;;;;;;;0.36;94.43;101552.56;5014877;28;20036;-43
2022/04/02 02:48:30;;;;;;;7.45;2.58;;;;;;;0.34;94.92;101554.41;5015929;28;20450;-42
2022/04/02 02:50:56;;;;;;;8.63;2.60;;;;;;;0.33;94.62;101552.69;5015842;28;20041;-43
2022/04/02 02:53:21;;;;;;;5.00;2.47;;;;;;;0.31;94.75;101557.19;5016187;28;20024;-40
2022/04/02 02:55:48;;;;;;;5.75;2.60;;;;;;;0.30;94.99;101559.88;5016975;28;20044;-42
2022/04/02 02:58:14;;;;;;;4.55;2.40;;;;;;;0.28;95.00;101559.13;5015717;28;20041;-40
2022/04/02 03:00:40;;;;;;;3.67;2.38;;;;;;;0.26;95.39;101564.44;5015092;28;20032;-41
2022/04/02 03:03:06;;;;;;;5.15;2.53;;;;;;;0.23;95.36;101556.72;5006604;28;20452;-42
2022/04/02 03:05:31;;;;;;;7.60;2.70;;;;;;;0.23;95.13;101551.47;4996955;28;20069;-42
2022/04/02 03:07:56;;;;;;;4.95;2.47;;;;;;;0.22;94.80;101560.28;5013648;28;20014;-41
2022/04/02 03:10:25;;;;;;;8.00;2.60;;;;;;;0.19;95.13;101560.44;5014406;28;20129;-41
2022/04/02 03:12:51;;;;;;;3.83;2.38;;;;;;;0.17;95.92;101555.25;5016235;28;20112;-41
2022/04/02 03:15:21;;;;;;;7.43;2.65;;;;;;;0.20;95.65;101561.28;5028677;28;20043;-42
2022/04/02 03:17:50;;;;;;;5.53;2.53;;;;;;;0.15;95.86;101554.50;5030740;28;20494;-42
2022/04/02 03:20:17;;;;;;;4.82;2.42;;;;;;;0.13;95.89;101569.44;5015894;28;20461;-41
2022/04/02 03:22:45;;;;;;;4.35;2.70;;;;;;;0.12;96.43;101569.53;5015693;28;20025;-41
2022/04/02 03:25:15;;;;;;;7.45;2.60;;;;;;;0.10;96.38;101568.75;5015653;28;20468;-41
2022/04/02 03:27:43;;;;;;;5.15;2.15;;;;;;;0.09;96.42;101559.19;5015005;28;20033;-42
2022/04/02 03:30:10;;;;;;;5.22;2.53;;;;;;;0.09;96.68;101570.53;5013712;28;20566;-43
2022/04/02 03:32:36;;;;;;;4.22;2.03;;;;;;;0.12;95.44;101569.53;5015475;28;20449;-41
2022/04/02 03:35:02;;;;;;;5.55;2.50;;;;;;;0.06;96.20;101561.97;5005567;28;20119;-41
2022/04/02 03:37:28;;;;;;;3.38;2.35;;;;;;;0.03;96.25;101562.94;4996008;28;20141;-42
2022/04/02 03:39:54;;;;;;;6.47;2.70;;;;;;;0.03;96.84;101567.34;5015991;28;20045;-41
2022/04/02 03:42:20;;;;;;;5.13;2.60;;;;;;;0.02;96.18;101563.03;5015686;28;20083;-43
2022/04/02 03:44:46;;;;;;;5.55;2.53;;;;;;;0.06;95.88;101578.56;5014103;28;20026;-43
2022/04/02 03:47:11;;;;;;;4.45;2.60;;;;;;;0.00;96.71;101573.63;5015459;28;20031;-42
2022/04/02 03:49:42;;;;;;;5.13;2.35;;;;;;;-0.02;95.75;101573.69;5015406;28;20021;-41
2022/04/02 03:52:08;;;;;;;4.77;2.53;;;;;;;-0.02;96.30;101578.94;5010409;28;20059;-41
2022/04/02 03:54:35;;;;;;;5.50;2.38;;;;;;;-0.02;96.08;101576.31;4994160;28;20376;-41
2022/04/02 03:57:04;;;;;;;7.70;2.78;;;;;;;-0.03;97.42;101581.66;5006099;28;20162;-41
2022/04/02 03:59:30;;;;;;;6.63;2.50;;;;;;;-0.04;96.94;101577.31;5014245;28;20503;-43
2022/04/02 04:01:56;;;;;;;3.75;2.60;;;;;;;-0.05;97.16;101579.09;5013687;28;20025;-40
2022/04/02 04:04:22;;;;;;;6.72;2.58;;;;;;;-0.05;96.91;101583.47;5015776;28;20437;-42
2022/04/02 04:06:48;;;;;;;5.57;2.53;;;;;;;-0.06;96.68;101582.63;5015341;28;20347;-41
2022/04/02 04:09:13;;;;;;;4.07;2.70;;;;;;;-0.07;96.70;101587.97;5012877;28;20594;-43
2022/04/02 04:11:38;;;;;;;4.60;2.45;;;;;;;-0.07;96.59;101590.59;5015374;28;20083;-41
2022/04/02 04:14:04;;;;;;;4.78;2.72;;;;;;;-0.05;96.97;101586.97;5014054;28;20068;-43
2022/04/02 04:16:29;;;;;;;7.45;2.35;;;;;;;-0.06;97.36;101595.75;5013978;28;20690;-41
2022/04/02 04:18:55;;;;;;;6.32;2.40;;;;;;;-0.10;96.84;101590.72;5015025;28;20092;-42
2022/04/02 04:21:20;;;;;;;5.82;2.60;;;;;;;-0.10;97.27;101594.22;5014724;28;20575;-42
2022/04/02 04:23:45;;;;;;;5.45;2.90;;;;;;;-0.12;97.23;101598.69;5014659;28;20052;-40
2022/04/02 04:26:11;;;;;;;4.47;2.10;;;;;;;-0.09;96.60;101595.06;5012022;28;20112;-41
2022/04/02 04:28:37;;;;;;;3.40;2.30;;;;;;;-0.11;97.62;101594.28;5014271;28;20345;-42
2022/04/02 04:31:04;;;;;;;5.35;2.50;;;;;;;-0.12;97.57;101589.94;5012920;28;20126;-41
2022/04/02 04:33:30;;;;;;;4.18;1.85;;;;;;;-0.14;97.35;101584.78;5013289;28;20037;-41
2022/04/02 04:35:55;;;;;;;4.78;2.38;;;;;;;-0.15;97.28;101588.34;5013743;28;20045;-41
2022/04/02 04:38:20;;;;;;;5.57;2.40;;;;;;;-0.13;97.61;101596.16;5014250;28;20049;-42
2022/04/02 04:40:46;;;;;;;13.98;2.80;;;;;;;-0.16;97.65;101599.75;5015178;28;20271;-42
2022/04/02 04:43:11;;;;;;;3.80;2.15;;;;;;;-0.15;97.57;101601.47;5013247;28;20364;-42
2022/04/02 04:45:36;;;;;;;4.43;2.38;;;;;;;-0.14;97.12;101608.41;5014026;28;20091;-41
2022/04/02 04:48:02;;;;;;;8.80;2.80;;;;;;;-0.16;97.31;101607.63;5014448;28;20029;-43
2022/04/02 04:50:27;;;;;;;3.50;2.42;;;;;;;-0.14;97.83;101612.81;5013861;28;20029;-42
2022/04/02 04:52:52;;;;;;;4.40;2.55;;;;;;;-0.18;97.37;101609.47;5013489;28;20029;-40
2022/04/02 04:55:18;;;;;;;5.57;2.50;;;;;;;-0.16;97.62;101623.38;5013792;28;20048;-41
2022/04/02 04:57:44;;;;;;;5.40;3.08;;;;;;;-0.18;97.96;101625.25;5014071;28;20355;-41
2022/04/02 05:00:09;;;;;;;6.43;2.42;;;;;;;-0.18;98.08;101625.25;5011672;28;20624;-43
2022/04/02 05:02:35;;;;;;;7.30;2.60;;;;;;;-0.21;97.94;101628.84;5026562;28;20107;-41
2022/04/02 05:05:00;;;;;;;8.80;2.67;;;;;;;-0.19;98.59;101634.03;5014299;28;20029;-41
2022/04/02 05:07:26;;;;;;;7.05;2.70;;;;;;;-0.20;98.25;101634.97;5009731;28;20492;-44
2022/04/02 05:09:51;;;;;;;9.43;2.65;;;;;;;-0.21;98.73;101633.25;5006240;28;20056;-40
2022/04/02 05:12:17;;;;;;;5.80;2.70;;;;;;;-0.24;98.86;101638.63;5013061;28;20120;-41
2022/04/02 05:14:42;;;;;;;6.38;2.30;;;;;;;-0.23;98.64;101643.81;5028336;28;20030;-41
2022/04/02 05:17:08;;;;;;;4.88;2.25;;;;;;;-0.25;98.77;101636.97;5013419;28;20052;-41
2022/04/02 05:19:33;;;;;;;8.73;2.70;;;;;;;-0.25;98.68;101643.03;5013261;28;20029;-42
2022/04/02 05:22:00;;;;;;;5.82;2.50;;;;;;;-0.20;98.65;101645.47;5013043;28;20037;-42
2022/04/02 05:24:26;;;;;;;6.43;2.30;;;;;;;-0.17;98.55;101647.94;5003815;28;20021;-41
2022/04/02 05:26:51;;;;;;;3.95;2.47;;;;;;;-0.15;97.85;101646.09;4993978;28;20040;-41
2022/04/02 05:29:16;;;;;;;9.15;2.65;;;;;;;-0.10;97.61;101654.59;5009275;28;20021;-41
2022/04/02 05:31:42;;;;;;;5.72;2.58;;;;;;;-0.05;97.94;101663.13;4998483;28;20060;-41
2022/04/02 05:34:08;;;;;;;5.65;2.63;;;;;;;-0.01;98.16;101662.03;4993831;28;20026;-40
2022/04/02 05:36:34;;;;;;;7.22;2.60;;;;;;;0.02;97.78;101663.69;5006232;28;20415;-43
2022/04/02 05:38:59;;;;;;;3.95;2.35;;;;;;;0.04;98.07;101666.25;5012246;28;20025;-43
2022/04/02 05:41:25;;;;;;;6.32;2.63;;;;;;;0.06;98.09;101675.72;5002109;28;20146;-40
2022/04/02 05:43:50;;;;;;;4.95;2.30;;;;;;;0.07;97.88;101682.69;4992795;28;20071;-41
2022/04/02 05:46:16;;;;;;;5.40;2.63;;;;;;;0.07;98.06;101676.56;5008349;28;20041;-40
2022/04/02 05:48:42;;;;;;;6.18;2.30;;;;;;;0.13;98.02;101687.66;5013970;28;20532;-41
2022/04/02 05:51:08;;;;;;;7.15;2.92;;;;;;;0.15;98.32;101684.94;5012945;28;20325;-43
2022/04/02 05:53:33;;;;;;;4.20;2.53;;;;;;;0.16;98.19;101689.28;4992815;28;20059;-42
2022/04/02 05:55:59;;;;;;;8.18;2.63;;;;;;;0.16;97.38;101689.28;5003964;28;20059;-41
2022/04/02 05:58:24;;;;;;;6.20;2.47;;;;;;;0.14;97.83;101688.50;4999278;28;20040;-41
2022/04/02 06:00:50;;;;;;;4.78;2.30;;;;;;;0.16;98.22;101694.53;5009274;28;20168;-42
2022/04/02 06:03:16;;;;;;;6.43;2.72;;;;;;;0.16;98.26;101697.16;5012788;28;20044;-41
2022/04/02 06:05:41;;;;;;;4.60;2.45;;;;;;;0.19;98.18;101697.03;5012800;28;20095;-41
2022/04/02 06:08:06;;;;;;;9.40;2.97;;;;;;;0.20;98.41;101703.97;5013069;28;20041;-41
2022/04/02 06:10:32;;;;;;;6.53;3.17;;;;;;;0.20;98.18;101701.34;5012252;28;20254;-42
2022/04/02 06:12:57;;;;;;;3.53;2.50;;;;;;;0.23;98.99;101702.97;5011538;28;20025;-42
2022/04/02 06:15:24;;;;;;;5.28;2.67;;;;;;;0.27;98.49;101709.78;5012617;28;20134;-41
2022/04/02 06:17:50;;;;;;;8.20;2.70;;;;;;;0.30;98.65;101714.91;5013264;28;20021;-42
2022/04/02 06:20:15;;;;;;;7.15;2.47;;;;;;;0.32;98.96;101715.66;5013055;28;20037;-41
2022/04/02 06:22:41;;;;;;;5.57;2.55;;;;;;;0.36;98.18;101720.72;5012795;28;20468;-42
2022/04/02 06:25:07;;;;;;;5.13;2.70;;;;;;;0.41;98.58;101725.75;5011564;28;20327;-42
2022/04/02 06:27:40;;;;;;;8.40;2.60;;;;;;;0.45;98.74;101726.47;5013457;28;20108;-40
2022/04/02 06:30:05;;;;;;;5.57;2.88;;;;;;;0.51;99.04;101732.28;5009770;28;20225;-41
2022/04/02 06:32:31;;;;;;;8.57;2.85;;;;;;;0.57;99.00;101732.91;5011284;28;20427;-41
2022/04/02 06:34:56;;;;;;;6.25;2.88;;;;;;;0.61;98.01;101735.31;5003917;28;20424;-42
2022/04/02 06:37:21;;;;;;;4.53;2.83;;;;;;;0.65;97.86;101742.09;4996148;28;20050;-42
2022/04/02 06:39:47;;;;;;;13.00;3.20;;;;;;;0.71;97.75;101741.81;5001231;28;20029;-41
2022/04/02 06:42:12;;;;;;;7.25;2.95;;;;;;;0.77;97.82;101742.44;5012327;28;20033;-41
2022/04/02 06:44:38;;;;;;;5.97;2.95;;;;;;;0.82;96.89;101748.31;5011578;28;20248;-41
2022/04/02 06:47:03;;;;;;;6.05;2.63;;;;;;;0.85;97.53;101751.66;5011512;28;20092;-42
2022/04/02 06:49:29;;;;;;;5.65;2.95;;;;;;;0.90;96.97;101761.91;5012944;28;20033;-42
2022/04/02 06:51:54;;;;;;;10.73;3.03;;;;;;;0.96;96.99;101751.09;5011195;28;20107;-41
2022/04/02 06:54:19;;;;;;;7.50;2.95;;;;;;;0.99;97.01;101756.22;5011991;28;20682;-41
2022/04/02 06:56:45;;;;;;;9.95;2.80;;;;;;;1.10;96.55;101766.19;5013177;28;20021;-43
2022/04/02 06:59:10;;;;;;;5.75;2.97;;;;;;;1.17;95.72;101769.38;5010936;28;20036;-43
2022/04/02 07:01:36;;;;;;;4.10;2.60;;;;;;;1.22;95.97;101760.34;4998933;28;20036;-42
2022/04/02 07:04:01;;;;;;;6.00;2.75;;;;;;;1.26;95.51;101766.28;5009900;28;20459;-42
2022/04/02 07:06:26;;;;;;;6.70;2.65;;;;;;;1.39;94.67;101770.00;5011057;28;20052;-41
2022/04/02 07:08:52;;;;;;;4.82;2.67;;;;;;;1.43;94.32;101770.69;5010802;28;20670;-42
2022/04/02 07:11:17;;;;;;;5.90;2.67;;;;;;;1.53;93.70;101776.31;5011194;28;20033;-43
2022/04/02 07:13:43;;;;;;;3.80;2.53;;;;;;;1.62;93.35;101783.75;5011495;28;20049;-43
2022/04/02 07:16:08;;;;;;;6.60;2.60;;;;;;;1.65;92.88;101783.59;5011105;28;20124;-43
2022/04/02 07:18:35;;;;;;;5.72;2.95;;;;;;;1.71;93.67;101785.88;5012873;28;20018;-41
2022/04/02 07:21:02;;;;;;;5.47;2.75;;;;;;;1.81;92.26;101783.63;5011454;28;20345;-40
2022/04/02 07:23:29;;;;;;;5.43;2.50;;;;;;;1.82;91.46;101791.44;5013021;28;20021;-41
2022/04/02 07:25:55;;;;;;;4.47;2.90;;;;;;;1.83;92.56;101793.16;5014128;28;20510;-42
2022/04/02 07:28:22;;;;;;;7.22;2.67;;;;;;;1.88;92.53;101802.59;5014566;28;20025;-42
2022/04/02 07:30:47;;;;;;;6.50;2.70;;;;;;;1.95;92.58;101802.19;5014246;28;20029;-41
2022/04/02 07:33:13;;;;;;;9.32;2.85;;;;;;;2.03;91.62;101807.88;5015045;28;20047;-41
2022/04/02 07:35:44;;;;;;;10.65;2.90;;;;;;;2.09;91.55;101809.34;5015472;28;20083;-42
2022/04/02 07:38:16;;;;;;;6.15;2.80;;;;;;;2.14;91.33;101809.97;5014657;28;20050;-42
2022/04/02 07:40:50;;;;;;;6.28;3.10;;;;;;;2.19;91.30;101812.31;5030413;28;20297;-40
2022/04/02 07:43:36;;;;;;;6.18;2.78;;;;;;;2.28;90.00;101824.19;5013077;28;20507;-43
2022/04/02 07:46:06;;;;;;;6.45;2.72;;;;;;;2.32;89.80;101829.19;5012828;28;20552;-41
2022/04/02 07:48:35;;;;;;;5.57;2.90;;;;;;;2.37;89.57;101821.88;5003042;28;20401;-41
2022/04/02 07:51:06;;;;;;;5.70;3.10;;;;;;;2.45;90.36;101824.09;5006786;28;20040;-43
2022/04/02 07:53:39;;;;;;;6.50;2.85;;;;;;;2.58;91.81;101830.41;4997767;28;20112;-45
2022/04/02 07:56:05;;;;;;;5.82;2.75;;;;;;;2.73;90.62;101827.84;5017792;28;20042;-41
2022/04/02 07:58:32;;;;;;;7.28;3.10;;;;;;;2.78;88.78;101826.66;5012378;28;20549;-41
2022/04/02 08:01:01;;;;;;;3.97;2.67;;;;;;;2.88;86.05;101826.13;4996446;28;20033;-42
2022/04/02 08:03:29;;;;;;;5.70;2.90;;;;;;;2.95;86.23;101825.72;4997645;28;20029;-42
2022/04/02 08:05:57;;;;;;;5.00;2.55;;;;;;;3.04;86.96;101836.66;4996505;28;20026;-41
2022/04/02 08:08:28;;;;;;;7.78;3.13;;;;;;;3.09;87.06;101830.19;4994491;28;20583;-40
2022/04/02 08:10:54;;;;;;;8.85;3.00;;;;;;;3.11;85.68;101838.88;4995185;28;20025;-40
2022/04/02 08:13:21;;;;;;;7.45;3.33;;;;;;;3.12;85.68;101842.34;4994062;28;20053;-42
2022/04/02 08:15:47;;;;;;;8.18;3.08;;;;;;;3.15;84.62;101844.81;4993773;28;20034;-41
2022/04/02 08:18:16;;;;;;;6.25;3.03;;;;;;;3.20;85.97;101840.13;4995372;28;20029;-41
2022/04/02 08:20:42;;;;;;;10.20;3.20;;;;;;;3.20;84.41;101836.63;4994786;28;20029;-42
2022/04/02 08:23:08;;;;;;;5.43;3.22;;;;;;;3.16;86.04;101839.44;4994433;28;20640;-43
2022/04/02 08:25:35;;;;;;;6.95;3.20;;;;;;;3.16;86.74;101838.59;4993915;28;20104;-44
2022/04/02 08:28:13;;;;;;;5.70;2.92;;;;;;;3.16;85.21;101851.81;4992459;28;20346;-43
2022/04/02 08:30:47;;;;;;;7.20;2.90;;;;;;;3.12;84.82;101847.63;4994233;28;20017;-41
2022/04/02 08:33:41;;;;;;;6.60;3.10;;;;;;;3.11;85.73;101846.78;4994099;28;20096;-41
2022/04/02 08:36:21;;;;;;;7.00;3.13;;;;;;;3.19;86.49;101846.31;4988204;28;20056;-41
2022/04/02 08:39:01;;;;;;;4.72;3.03;;;;;;;3.27;85.78;101845.91;5008106;28;20192;-43
2022/04/02 08:41:48;;;;;;;9.00;3.45;;;;;;;3.26;86.22;101852.97;4994359;28;20029;-43
2022/04/02 08:44:29;;;;;;;6.90;2.90;;;;;;;3.30;86.31;101859.75;5006964;28;20433;-43
2022/04/02 08:47:15;;;;;;;5.72;3.22;;;;;;;3.24;85.96;101860.13;5012951;28;20037;-41
2022/04/02 08:49:50;;;;;;;12.32;3.22;;;;;;;3.17;86.69;101861.41;5014552;28;20036;-42
2022/04/02 08:52:21;;;;;;;5.85;3.40;;;;;;;3.24;86.18;101862.78;5004512;28;20040;-42
2022/04/02 08:55:08;;;;;;;8.77;3.10;;;;;;;3.40;86.61;101859.25;4995287;28;20302;-41
2022/04/02 08:57:52;;;;;;;9.20;3.90;;;;;;;3.68;88.41;101869.88;5007425;28;20384;-43
2022/04/02 09:00:23;;;;;;;7.88;3.78;;;;;;;3.99;85.03;101869.81;5012722;28;20531;-41
2022/04/02 09:03:19;;;;;;;4.22;2.40;;;;;;;4.11;83.30;101875.22;5006527;28;20439;-42
2022/04/02 09:06:20;;;;;;;9.05;3.50;;;;;;;4.02;84.96;101880.22;5005574;28;20729;-43
2022/04/02 09:09:15;;;;;;;10.27;3.58;;;;;;;4.01;83.45;101884.66;5014087;28;20406;-41
2022/04/02 09:12:05;;;;;;;6.20;2.80;;;;;;;4.08;83.12;101880.69;5014356;28;20033;-42
2022/04/02 09:14:31;;;;;;;6.40;3.40;;;;;;;4.00;82.48;101880.31;5011556;28;20032;-42
2022/04/02 09:17:20;;;;;;;5.68;3.22;;;;;;;3.83;82.87;101891.88;5012724;28;20064;-43
2022/04/02 09:20:12;;;;;;;5.88;3.13;;;;;;;3.69;85.13;101897.16;4995241;28;20323;-42
2022/04/02 09:23:07;;;;;;;6.80;3.50;;;;;;;3.65;86.23;101899.13;5015036;28;20033;-41
2022/04/02 09:25:52;;;;;;;6.45;3.08;;;;;;;3.65;85.82;101893.84;5016021;28;20048;-41
2022/04/02 09:28:42;;;;;;;6.10;3.38;;;;;;;3.56;85.04;101902.28;4998453;28;20033;-41
2022/04/02 09:31:44;;;;;;;9.48;3.72;;;;;;;3.51;86.77;101899.06;5014000;28;20033;-46
2022/04/02 09:34:46;;;;;;;8.55;3.42;;;;;;;3.48;85.57;101900.13;5014839;28;20090;-46
2022/04/02 09:37:49;;;;;;;7.30;3.25;;;;;;;3.52;87.17;101900.78;5000674;28;20132;-47
2022/04/02 09:40:18;;;;;;;4.72;3.47;;;;;;;3.49;85.81;101900.94;5010346;28;20037;-50
2022/04/02 09:42:51;;;;;;;4.85;3.25;;;;;;;3.54;85.60;101899.72;5012246;28;20546;-48
2022/04/02 09:45:20;;;;;;;8.30;3.95;;;;;;;3.64;85.02;101901.84;5019512;28;20360;-49
2022/04/02 09:48:12;;;;;;;5.53;3.40;;;;;;;3.93;86.24;101910.69;5015587;28;20071;-50
2022/04/02 09:50:37;;;;;;;6.57;3.60;;;;;;;4.20;82.69;101904.69;5008358;28;20030;-46
2022/04/02 09:53:25;;;;;;;9.05;3.58;;;;;;;4.44;83.42;101910.25;5009811;28;20123;-47
2022/04/02 09:56:26;;;;;;;6.88;3.40;;;;;;;4.67;79.95;101903.53;4995583;28;20112;-47
2022/04/02 09:59:11;;;;;;;5.45;3.05;;;;;;;4.86;76.57;101904.06;4995942;28;20038;-43
2022/04/02 10:01:47;;;;;;;6.47;3.38;;;;;;;4.88;77.60;101903.13;5000020;28;20029;-43
2022/04/02 10:04:39;;;;;;;7.47;3.65;;;;;;;4.89;79.14;101900.38;5006336;28;20098;-42
2022/04/02 10:07:06;;;;;;;;;;;;;;;5.15;81.54;101903.16;5010448;28;20029;-42
2022/04/02 10:09:35;;;;;;;6.03;3.05;;;;;;;5.45;76.22;101902.94;5011374;28;19921;-41
2022/04/02 10:12:02;;;;;;;8.10;3.42;;;;;;;5.51;74.28;101896.38;5012204;28;20025;-41
2022/04/02 10:14:30;;;;;;;5.70;3.10;;;;;;;5.49;74.93;101901.78;5012117;28;20033;-45
2022/04/02 10:17:04;;;;;;;6.03;3.35;;;;;;;5.37;75.54;101895.50;5011447;28;20043;-41
2022/04/02 10:19:34;;;;;;;5.93;3.20;;;;;;;5.29;74.95;101897.78;5010483;28;20383;-43
2022/04/02 10:22:08;;;;;;;7.03;3.25;;;;;;;5.30;73.21;101893.34;5012147;28;20494;-41
2022/04/02 10:24:47;;;;;;;6.18;3.50;;;;;;;5.39;74.30;101898.03;5012773;28;20211;-43
2022/04/02 10:27:30;;;;;;;6.28;3.58;;;;;;;5.51;74.26;101893.72;5015053;28;20037;-40
2022/04/02 10:30:00;;;;;;;7.45;3.65;;;;;;;5.60;73.86;101893.97;5018597;28;20033;-40
2022/04/02 10:33:26;;;;;;;10.00;3.95;;;;;;;5.72;74.36;101894.06;5015553;28;20334;-41
2022/04/02 10:35:49;;;;;;;6.85;3.67;;;;;;;5.95;69.22;101885.41;5003704;28;20124;-42
2022/04/02 10:38:34;;;;;;;4.97;3.20;;;;;;;6.07;70.73;101889.06;5011983;28;20056;-40
2022/04/02 10:41:14;;;;;;;4.97;2.88;;;;;;;6.03;69.11;101890.22;5012051;28;20088;-42
2022/04/02 10:44:02;;;;;;;5.13;2.92;;;;;;;5.76;70.24;101880.53;5012130;28;20515;-45
2022/04/02 10:46:32;;;;;;;7.50;3.22;;;;;;;5.49;70.60;101883.22;5011169;28;20111;-41
2022/04/02 10:49:05;;;;;;;5.57;3.00;;;;;;;5.36;68.64;101888.50;5009867;28;20033;-41
2022/04/02 10:51:32;;;;;;;5.07;3.10;;;;;;;5.29;70.05;101887.19;5012861;28;20034;-41
2022/04/02 10:54:10;;;;;;;5.97;3.45;;;;;;;5.30;69.47;101891.56;5010279;28;20121;-43
2022/04/02 10:56:41;;;;;;;6.55;3.28;;;;;;;5.39;69.45;101893.56;5012357;28;20095;-43
2022/04/02 10:59:09;;;;;;;6.63;3.47;;;;;;;5.46;66.57;101886.06;5014507;28;20395;-44
2022/04/02 11:01:40;;;;;;;7.85;4.05;;;;;;;5.66;66.32;101890.03;5012720;28;20036;-41
2022/04/02 11:04:27;;;;;;;4.90;3.10;;;;;;;6.03;62.38;101874.31;5015344;28;20342;-42
2022/04/02 11:06:53;;;;;;;6.03;3.38;;;;;;;6.39;63.09;101885.13;5015498;28;20099;-43
2022/04/02 11:09:31;;;;;;;9.98;3.38;;;;;;;6.81;62.45;101885.69;5015740;28;20104;-42
2022/04/02 11:12:19;;;;;;;6.70;2.60;;;;;;;7.11;57.02;101882.56;5003510;28;20109;-45
2022/04/02 11:14:47;;;;;;;5.88;2.40;;;;;;;7.35;53.88;101885.25;4995216;28;20117;-46
2022/04/02 11:17:33;;;;;;;4.82;2.58;;;;;;;7.41;54.24;101882.09;4995150;28;20033;-47
2022/04/02 11:20:05;;;;;;;5.70;2.42;;;;;;;7.29;52.09;101891.84;4994158;28;20223;-47
2022/04/02 11:22:54;;;;;;;3.83;2.22;;;;;;;7.37;50.84;101885.97;5010615;28;20107;-45
2022/04/02 11:25:31;;;;;;;4.50;2.28;;;;;;;7.71;49.79;101880.75;4996169;28;20109;-45
2022/04/02 11:28:12;;;;;;;4.45;2.20;;;;;;;7.65;47.93;101889.19;5009667;28;20029;-45
2022/04/02 11:30:48;;;;;;;3.45;2.17;;;;;;;7.60;49.33;101880.72;5008687;28;20113;-42
2022/04/02 11:33:16;;;;;;;2.50;2.13;;;;;;;7.54;48.07;101884.69;4996319;28;20216;-45
2022/04/02 11:35:47;;;;;;;4.78;2.38;;;;;;;7.52;48.80;101881.31;4998892;28;20029;-43
2022/04/02 11:38:22;;;;;;;4.25;2.10;;;;;;;7.83;50.33;101871.84;5012730;28;20076;-44
2022/04/02 11:41:02;;;;;;;5.50;2.38;;;;;;;8.18;47.77;101888.69;5002405;28;20038;-45
2022/04/02 11:43:42;;;;;;;5.32;2.50;;;;;;;8.67;45.55;101886.66;4996754;28;20018;-44
2022/04/02 11:46:25;;;;;;;3.65;1.85;;;;;;;8.74;46.10;101879.88;4999684;28;20105;-41